Terminal Aerodrome Forecast
Issued by NWS

Home | Current Version | Previous Version | Text Only | Print | Product List | Glossary On
Versions: 1 2 3 4 5 6 7 8 9 10 11 12 13
000
FTUS46 KEKA 192353
TAFUKI
TAF
KUKI 192353Z 2000/2024 14009KT 6SM HZ SCT040
     FM200400 17003KT 6SM HZ FEW040
     FM201800 14008KT 6SM HZ FEW050=

USA.gov is the U.S. government's official web portal to all federal, state and local government web resources and services.